Time;durP1;ratioP1;P1;durP2;ratioP2;P2;SDS_P1;SDS_P2;PMS_P1;PMS_P2;Temp;Humidity;BMP_temperature;BMP_pressure;BME280_temperature;BME280_humidity;BME280_pressure;Samples;Min_cycle;Max_cycle;Signal;HPM_P1;HPM_P2
2021/09/29 00:01:25;;;;;;;4.10;3.80;;;14.00;99.90;;;;;;6000786;23;20550;-68
2021/09/29 00:03:50;;;;;;;6.60;4.10;;;14.00;99.90;;;;;;5999770;23;20646;-70
2021/09/29 00:06:16;;;;;;;4.57;4.27;;;14.00;99.90;;;;;;5999021;23;20209;-68
2021/09/29 00:08:46;;;;;;;5.93;4.27;;;14.00;99.90;;;;;;5998536;23;20252;-68
2021/09/29 00:11:11;;;;;;;4.30;3.90;;;14.00;99.90;;;;;;5999600;23;20169;-68
2021/09/29 00:13:39;;;;;;;6.80;4.67;;;13.90;99.90;;;;;;5976376;23;20733;-68
2021/09/29 00:16:07;;;;;;;4.30;3.90;;;13.90;99.90;;;;;;5999052;23;20264;-68
2021/09/29 00:18:35;;;;;;;4.50;4.10;;;13.90;99.90;;;;;;6000785;23;20629;-68
2021/09/29 00:21:01;;;;;;;5.33;4.70;;;13.90;99.90;;;;;;6000514;23;20645;-68
2021/09/29 00:23:29;;;;;;;4.10;3.80;;;13.90;99.90;;;;;;6003064;23;20621;-68
2021/09/29 00:25:55;;;;;;;4.47;4.03;;;13.90;99.90;;;;;;5975522;23;20280;-68
2021/09/29 00:28:22;;;;;;;7.40;4.83;;;13.70;99.90;;;;;;5997967;23;20959;-68
2021/09/29 00:31:01;;;;;;;5.53;4.07;;;13.60;99.90;;;;;;6000336;23;20168;-68
2021/09/29 00:33:30;;;;;;;5.73;4.63;;;13.70;99.90;;;;;;5975224;23;21072;-72
2021/09/29 00:36:00;;;;;;;5.30;4.73;;;13.60;99.90;;;;;;6001122;23;20616;-69
2021/09/29 00:38:30;;;;;;;7.40;4.77;;;13.60;99.90;;;;;;6016242;23;20633;-68
2021/09/29 00:40:56;;;;;;;4.87;4.20;;;13.70;99.90;;;;;;6007359;23;20584;-68
2021/09/29 00:43:24;;;;;;;4.70;4.40;;;13.70;99.90;;;;;;6000241;23;20709;-68
2021/09/29 00:45:53;;;;;;;4.70;4.30;;;13.70;99.90;;;;;;5999996;23;20209;-68
2021/09/29 00:48:21;;;;;;;4.83;4.00;;;13.70;99.90;;;;;;6000217;23;20585;-68
2021/09/29 00:50:47;;;;;;;4.33;4.00;;;13.60;99.90;;;;;;5999080;23;20569;-68
2021/09/29 00:53:13;;;;;;;6.07;4.40;;;13.60;99.90;;;;;;6001161;23;20550;-68
2021/09/29 00:55:44;;;;;;;4.37;3.97;;;13.60;99.90;;;;;;5998221;23;20598;-68
2021/09/29 00:58:09;;;;;;;6.73;4.30;;;13.60;99.90;;;;;;5999293;23;20196;-72
2021/09/29 01:00:37;;;;;;;7.63;4.10;;;13.60;99.90;;;;;;6001634;23;20541;-68
2021/09/29 01:03:05;;;;;;;4.83;4.43;;;13.60;99.90;;;;;;5974605;23;20239;-68
2021/09/29 01:05:32;;;;;;;4.77;4.37;;;13.60;99.90;;;;;;5999418;23;20629;-68
2021/09/29 01:08:11;;;;;;;5.50;4.10;;;13.60;99.90;;;;;;5997630;23;21083;-68
2021/09/29 01:10:46;;;;;;;6.13;4.33;;;13.60;99.90;;;;;;5974911;23;20585;-68
2021/09/29 01:13:20;;;;;;;7.40;4.63;;;13.50;99.90;;;;;;6000012;23;20651;-68
2021/09/29 01:15:49;;;;;;;5.57;4.30;;;13.50;99.90;;;;;;5975368;23;20593;-68
2021/09/29 01:18:22;;;;;;;8.53;4.67;;;13.50;99.90;;;;;;6001889;23;20661;-68
2021/09/29 01:20:52;;;;;;;5.30;4.00;;;13.50;99.90;;;;;;6001096;23;20526;-68
2021/09/29 01:23:51;;;;;;;8.13;4.00;;;13.50;99.90;;;;;;6002043;23;20616;-68
2021/09/29 01:26:26;;;;;;;6.23;4.80;;;13.40;99.90;;;;;;5974962;23;20593;-68
2021/09/29 01:28:56;;;;;;;4.33;3.93;;;13.40;99.90;;;;;;6002822;23;20565;-68
2021/09/29 01:31:23;;;;;;;5.00;4.50;;;13.40;99.90;;;;;;6001420;23;20542;-68
2021/09/29 01:33:50;;;;;;;5.20;4.03;;;13.40;99.90;;;;;;6002555;23;20605;-68
2021/09/29 01:36:20;;;;;;;5.63;4.43;;;13.40;99.90;;;;;;5974716;23;20604;-68
2021/09/29 01:38:54;;;;;;;7.60;4.57;;;13.30;99.90;;;;;;6001154;23;21157;-68
2021/09/29 01:41:24;;;;;;;6.73;5.23;;;13.30;99.90;;;;;;6001802;23;20533;-68
2021/09/29 01:43:51;;;;;;;4.80;4.40;;;13.30;99.90;;;;;;6001445;23;20589;-68
2021/09/29 01:46:16;;;;;;;4.63;4.23;;;13.30;99.90;;;;;;6000005;23;21354;-68
2021/09/29 01:49:13;;;;;;;4.93;4.07;;;13.30;99.90;;;;;;6000738;23;20581;-68
2021/09/29 01:51:43;;;;;;;5.27;3.97;;;13.20;99.90;;;;;;5988757;23;20211;-68
2021/09/29 01:54:12;;;;;;;6.30;4.70;;;13.20;99.90;;;;;;6000981;23;21107;-67
2021/09/29 01:56:46;;;;;;;4.97;4.27;;;13.10;99.90;;;;;;5999562;23;21264;-68
2021/09/29 01:59:14;;;;;;;5.93;3.80;;;13.20;99.90;;;;;;6000611;23;20574;-68
2021/09/29 02:01:42;;;;;;;6.20;4.50;;;13.10;99.90;;;;;;6002934;23;20554;-68
2021/09/29 02:04:09;;;;;;;5.93;4.40;;;13.20;99.90;;;;;;6000570;23;20620;-68
2021/09/29 02:06:51;;;;;;;5.73;4.60;;;13.20;99.90;;;;;;6000028;23;20593;-68
2021/09/29 02:09:18;;;;;;;5.07;4.00;;;13.10;99.90;;;;;;6001138;23;20558;-68
2021/09/29 02:11:46;;;;;;;4.70;3.83;;;13.10;99.90;;;;;;6000817;23;20639;-68
2021/09/29 02:14:18;;;;;;;4.80;4.40;;;13.10;99.90;;;;;;5975440;23;21166;-68
2021/09/29 02:16:44;;;;;;;4.83;4.43;;;13.10;99.90;;;;;;5999788;23;20616;-67
2021/09/29 02:19:14;;;;;;;6.87;4.27;;;13.10;99.90;;;;;;5977026;23;20597;-68
2021/09/29 02:21:43;;;;;;;4.93;4.40;;;13.00;99.90;;;;;;5976402;23;21177;-68
2021/09/29 02:24:13;;;;;;;8.20;4.50;;;13.10;99.90;;;;;;6001254;23;21108;-68
2021/09/29 02:26:42;;;;;;;5.40;4.33;;;13.10;99.90;;;;;;5974964;23;20612;-68
2021/09/29 02:29:09;;;;;;;5.00;4.30;;;13.00;99.90;;;;;;5973748;23;20613;-68
2021/09/29 02:31:34;;;;;;;5.00;4.37;;;13.00;99.90;;;;;;5975619;23;20570;-68
2021/09/29 02:34:00;;;;;;;4.83;4.30;;;13.00;99.90;;;;;;6000166;23;20608;-68
2021/09/29 02:36:25;;;;;;;4.90;4.27;;;13.00;99.90;;;;;;6000771;23;20216;-68
2021/09/29 02:38:51;;;;;;;5.70;4.60;;;13.00;99.90;;;;;;5975874;23;20215;-68
2021/09/29 02:41:18;;;;;;;4.93;4.53;;;13.00;99.90;;;;;;6000324;23;20165;-68
2021/09/29 02:43:46;;;;;;;5.40;4.43;;;12.90;99.90;;;;;;6002549;23;20964;-68
2021/09/29 02:46:12;;;;;;;5.30;4.60;;;12.90;99.90;;;;;;5975934;23;20604;-68
2021/09/29 02:48:37;;;;;;;5.60;4.93;;;12.90;99.90;;;;;;5974696;23;20633;-68
2021/09/29 02:51:03;;;;;;;5.87;3.70;;;12.90;99.90;;;;;;6002020;23;20165;-68
2021/09/29 02:53:29;;;;;;;4.80;4.30;;;12.90;99.90;;;;;;5977894;23;20173;-68
2021/09/29 02:56:00;;;;;;;4.90;3.70;;;12.90;99.90;;;;;;5999928;23;20287;-67
2021/09/29 02:58:26;;;;;;;4.67;4.30;;;12.90;99.90;;;;;;6000356;23;20605;-67
2021/09/29 03:00:53;;;;;;;5.77;5.23;;;12.90;99.90;;;;;;6001606;23;20698;-68
2021/09/29 03:03:20;;;;;;;5.77;4.57;;;12.80;99.90;;;;;;6002167;23;20609;-70
2021/09/29 03:05:46;;;;;;;4.50;4.10;;;12.80;99.90;;;;;;5999475;23;20633;-68
2021/09/29 03:08:12;;;;;;;6.90;3.97;;;12.80;99.90;;;;;;6001705;23;21032;-68
2021/09/29 03:10:45;;;;;;;4.93;4.53;;;12.80;99.90;;;;;;6001198;23;20565;-68
2021/09/29 03:13:12;;;;;;;7.20;4.87;;;12.80;99.90;;;;;;5975972;23;20167;-68
2021/09/29 03:15:39;;;;;;;6.30;4.80;;;12.70;99.90;;;;;;5999260;23;20618;-68
2021/09/29 03:18:04;;;;;;;5.33;4.00;;;12.70;99.90;;;;;;6002770;23;20633;-67
2021/09/29 03:20:30;;;;;;;4.70;4.30;;;12.70;99.90;;;;;;6001375;23;20573;-68
2021/09/29 03:22:59;;;;;;;5.60;4.50;;;12.70;99.90;;;;;;6002371;23;20244;-69
2021/09/29 03:25:26;;;;;;;8.93;4.60;;;12.70;99.90;;;;;;5984371;23;21129;-70
2021/09/29 03:27:52;;;;;;;7.13;4.70;;;12.70;99.90;;;;;;6023121;23;20578;-68
2021/09/29 03:30:18;;;;;;;5.03;4.50;;;12.70;99.90;;;;;;6008960;23;20536;-68
2021/09/29 03:32:47;;;;;;;4.87;4.37;;;12.70;99.90;;;;;;6003020;23;20587;-68
2021/09/29 03:35:13;;;;;;;8.63;4.77;;;12.70;99.90;;;;;;5978132;23;20173;-68
2021/09/29 03:37:40;;;;;;;6.60;4.60;;;12.70;99.90;;;;;;6000739;23;20883;-68
2021/09/29 03:40:09;;;;;;;4.90;4.40;;;12.70;99.90;;;;;;5974814;23;20665;-68
2021/09/29 03:42:35;;;;;;;6.50;4.40;;;12.70;99.90;;;;;;5974591;23;20577;-68
2021/09/29 03:45:01;;;;;;;6.17;5.03;;;12.70;99.90;;;;;;5999121;23;20593;-68
2021/09/29 03:47:26;;;;;;;5.30;4.80;;;12.70;99.90;;;;;;5998973;23;20223;-68
2021/09/29 03:49:59;;;;;;;5.20;4.70;;;12.70;99.90;;;;;;6000675;23;20161;-68
2021/09/29 03:52:29;;;;;;;5.47;4.97;;;12.70;99.90;;;;;;6001878;23;20197;-68
2021/09/29 03:54:55;;;;;;;5.63;4.70;;;12.70;99.90;;;;;;5999282;23;20740;-68
2021/09/29 03:57:20;;;;;;;5.60;4.60;;;12.70;99.90;;;;;;6000201;23;20629;-68
2021/09/29 03:59:46;;;;;;;5.13;4.73;;;12.70;99.90;;;;;;6000083;23;20161;-68
2021/09/29 04:02:11;;;;;;;5.27;4.77;;;12.80;99.90;;;;;;5999959;23;20596;-68
2021/09/29 04:04:37;;;;;;;4.93;4.40;;;12.80;99.90;;;;;;6000724;23;20195;-68
2021/09/29 04:07:05;;;;;;;5.33;4.47;;;12.80;99.90;;;;;;6000300;23;20213;-68
2021/09/29 04:09:30;;;;;;;6.07;5.57;;;12.70;99.90;;;;;;6000299;23;20177;-68
2021/09/29 04:11:58;;;;;;;7.13;4.73;;;12.70;99.90;;;;;;5998884;23;20653;-68
2021/09/29 04:14:24;;;;;;;5.37;4.63;;;12.80;99.90;;;;;;5975235;23;20173;-68
2021/09/29 04:16:50;;;;;;;5.83;4.53;;;12.70;99.90;;;;;;5999187;23;20657;-70
2021/09/29 04:19:15;;;;;;;5.00;4.40;;;12.80;99.90;;;;;;5975882;23;20600;-69
2021/09/29 04:21:41;;;;;;;6.73;4.30;;;12.80;99.90;;;;;;5999907;23;20697;-69
2021/09/29 04:24:09;;;;;;;5.80;4.60;;;12.80;99.90;;;;;;5996841;23;20212;-69
2021/09/29 04:26:35;;;;;;;6.10;4.80;;;12.80;99.90;;;;;;5997927;23;20589;-69
2021/09/29 04:29:10;;;;;;;5.23;4.80;;;12.80;99.90;;;;;;6003407;23;20592;-69
2021/09/29 04:31:36;;;;;;;5.47;4.93;;;12.80;99.90;;;;;;6018034;23;20156;-69
2021/09/29 04:34:02;;;;;;;5.20;4.70;;;12.80;99.90;;;;;;6003546;23;20884;-69
2021/09/29 04:36:27;;;;;;;5.80;4.40;;;12.80;99.90;;;;;;5990642;23;20216;-68
2021/09/29 04:38:55;;;;;;;5.23;4.43;;;12.80;99.90;;;;;;6002651;23;20220;-70
2021/09/29 04:41:22;;;;;;;5.57;4.90;;;12.80;99.90;;;;;;6024566;23;20157;-69
2021/09/29 04:43:48;;;;;;;4.50;4.10;;;12.80;99.90;;;;;;6006053;23;20640;-69
2021/09/29 04:46:13;;;;;;;4.70;4.30;;;12.80;99.90;;;;;;5998323;23;20620;-69
2021/09/29 04:48:41;;;;;;;9.27;5.50;;;12.80;99.90;;;;;;6000415;23;20445;-69
2021/09/29 04:51:07;;;;;;;5.00;4.47;;;12.80;99.90;;;;;;6001185;23;20157;-69
2021/09/29 04:53:33;;;;;;;5.60;4.90;;;12.80;99.90;;;;;;5976466;23;20583;-70
2021/09/29 04:56:06;;;;;;;5.50;4.90;;;12.70;99.90;;;;;;5999209;23;20296;-69
2021/09/29 04:58:35;;;;;;;5.20;4.70;;;12.70;99.90;;;;;;6000273;23;20181;-69
2021/09/29 05:01:01;;;;;;;6.10;4.90;;;12.70;99.90;;;;;;5973718;23;20657;-69
2021/09/29 05:03:27;;;;;;;6.10;4.83;;;12.80;99.90;;;;;;5973392;23;20637;-69
2021/09/29 05:05:57;;;;;;;5.03;4.53;;;12.80;99.90;;;;;;5998744;23;20201;-70
2021/09/29 05:08:46;;;;;;;5.43;5.00;;;12.80;99.90;;;;;;5998575;23;20259;-69
2021/09/29 05:11:18;;;;;;;5.67;5.17;;;12.80;99.90;;;;;;5966590;23;20660;-68
2021/09/29 05:13:44;;;;;;;8.50;6.03;;;12.70;99.90;;;;;;5996057;23;20577;-68
2021/09/29 05:16:17;;;;;;;5.50;4.50;;;12.70;99.90;;;;;;5970909;23;20641;-68
2021/09/29 05:18:43;;;;;;;5.83;4.40;;;12.80;99.90;;;;;;5971573;23;20617;-68
2021/09/29 05:21:09;;;;;;;5.00;4.40;;;12.80;99.90;;;;;;5996877;23;20569;-68
2021/09/29 05:23:37;;;;;;;6.07;5.30;;;12.80;99.90;;;;;;5972341;23;20644;-68
2021/09/29 05:26:03;;;;;;;8.70;4.90;;;12.70;99.90;;;;;;5994901;23;20205;-68
2021/09/29 05:28:34;;;;;;;6.77;4.90;;;12.70;99.90;;;;;;5998592;23;20673;-68
2021/09/29 05:30:59;;;;;;;7.13;4.90;;;12.70;99.90;;;;;;5998263;23;20566;-68
2021/09/29 05:33:28;;;;;;;6.67;4.70;;;12.70;99.90;;;;;;5999400;23;20546;-68
2021/09/29 05:35:53;;;;;;;5.17;4.67;;;12.80;99.90;;;;;;5997504;23;20253;-67
2021/09/29 05:38:19;;;;;;;129.67;96.00;;;12.70;99.90;;;;;;5998763;23;20577;-69
2021/09/29 05:40:45;;;;;;;373.25;317.95;;;12.70;99.90;;;;;;5997590;23;24717;-68
2021/09/29 05:43:10;;;;;;;348.40;229.67;;;12.80;99.90;;;;;;5997649;23;20268;-67
2021/09/29 05:45:38;;;;;;;384.55;342.02;;;12.80;99.90;;;;;;5998928;23;24387;-68
2021/09/29 05:48:04;;;;;;;250.23;227.30;;;12.90;99.90;;;;;;6004197;23;20240;-69
2021/09/29 05:50:29;;;;;;;199.67;176.10;;;12.90;99.90;;;;;;5987084;23;20954;-68
2021/09/29 05:52:57;;;;;;;430.33;386.52;;;12.90;99.90;;;;;;6017705;23;24428;-68
2021/09/29 05:55:22;;;;;;;209.57;188.57;;;13.00;99.90;;;;;;6008143;23;20735;-68
2021/09/29 05:57:51;;;;;;;476.97;431.73;;;13.00;99.90;;;;;;6006564;23;24371;-69
2021/09/29 06:00:17;;;;;;;341.23;226.63;;;13.00;99.90;;;;;;6005164;23;20236;-70
2021/09/29 06:02:42;;;;;;;442.77;399.17;;;13.00;99.90;;;;;;5976805;23;24486;-69
2021/09/29 06:05:08;;;;;;;308.00;245.80;;;13.10;99.90;;;;;;5997907;23;20585;-69
2021/09/29 06:07:34;;;;;;;505.00;459.30;;;13.10;99.90;;;;;;5999519;23;24387;-69
2021/09/29 06:10:00;;;;;;;236.97;218.83;;;13.10;99.90;;;;;;6006687;23;20279;-69
2021/09/29 06:12:25;;;;;;;256.07;201.03;;;13.10;99.90;;;;;;6006030;23;20245;-69
2021/09/29 06:14:53;;;;;;;487.67;442.02;;;13.10;99.90;;;;;;6004019;23;24933;-69
2021/09/29 06:17:24;;;;;;;262.53;234.93;;;13.20;99.90;;;;;;6002903;23;20217;-69
2021/09/29 06:19:54;;;;;;;499.30;453.10;;;13.10;99.90;;;;;;5988701;23;24390;-69
2021/09/29 06:22:22;;;;;;;196.63;179.90;;;13.20;99.90;;;;;;6006507;23;20200;-69
2021/09/29 06:24:48;;;;;;;471.13;425.95;;;13.20;99.90;;;;;;6003093;23;24425;-69
2021/09/29 06:27:14;;;;;;;312.47;239.87;;;13.20;99.90;;;;;;6002930;23;20217;-69
2021/09/29 06:29:40;;;;;;;475.90;431.13;;;13.30;99.90;;;;;;5978492;23;24382;-69
2021/09/29 06:32:06;;;;;;;316.20;242.97;;;13.30;99.90;;;;;;6004556;23;20173;-69
2021/09/29 06:34:32;;;;;;;513.63;469.23;;;13.30;99.90;;;;;;6001477;23;24359;-69
2021/09/29 06:36:57;;;;;;;332.90;233.00;;;13.40;99.90;;;;;;6006635;23;20688;-69
2021/09/29 06:39:23;;;;;;;527.80;481.70;;;13.30;99.90;;;;;;6004937;23;24441;-69
2021/09/29 06:41:49;;;;;;;286.33;243.53;;;13.40;99.90;;;;;;6008986;23;20197;-69
2021/09/29 06:44:17;;;;;;;461.38;417.48;;;13.40;99.90;;;;;;6003827;23;24452;-68
2021/09/29 06:46:43;;;;;;;333.20;236.70;;;13.50;99.90;;;;;;6005582;23;20211;-68
2021/09/29 06:49:08;;;;;;;328.20;204.47;;;13.50;99.90;;;;;;6008036;23;20570;-68
2021/09/29 06:51:34;;;;;;;457.27;413.20;;;13.50;99.90;;;;;;6002754;23;24481;-68
2021/09/29 06:54:00;;;;;;;317.07;239.80;;;13.60;99.90;;;;;;6004830;23;20161;-68
2021/09/29 06:56:25;;;;;;;538.92;492.65;;;13.70;99.90;;;;;;6002061;23;24953;-68
2021/09/29 06:58:52;;;;;;;338.43;245.17;;;13.70;99.90;;;;;;5979750;23;20647;-68
2021/09/29 07:01:19;;;;;;;583.38;548.13;;;13.60;99.90;;;;;;6005861;23;24412;-68
2021/09/29 07:03:45;;;;;;;649.40;602.28;;;13.70;99.90;;;;;;6003960;23;24446;-68
2021/09/29 07:06:11;;;;;;;697.00;654.70;;;13.80;99.90;;;;;;6002846;23;24380;-69
2021/09/29 07:08:37;;;;;;;310.07;287.30;;;14.00;99.90;;;;;;5980200;23;20256;-68
2021/09/29 07:11:03;;;;;;;656.97;612.97;;;14.00;99.90;;;;;;6003074;23;24375;-69
2021/09/29 07:13:29;;;;;;;301.80;271.30;;;14.00;99.90;;;;;;6005503;23;20160;-68
2021/09/29 07:15:54;;;;;;;605.33;561.10;;;14.10;99.90;;;;;;6002211;23;24502;-68
2021/09/29 07:18:20;;;;;;;273.03;254.87;;;14.10;99.90;;;;;;6005243;23;20613;-68
2021/09/29 07:20:45;;;;;;;127.47;120.33;;;14.20;99.90;;;;;;6005016;23;20157;-68
2021/09/29 07:23:11;;;;;;;10.70;6.83;;;14.20;99.90;;;;;;6004449;23;20161;-68
2021/09/29 07:25:38;;;;;;;8.83;6.50;;;14.30;99.90;;;;;;6004122;23;20310;-68
2021/09/29 07:28:07;;;;;;;23.90;22.23;;;14.30;99.90;;;;;;6005071;23;20178;-69
2021/09/29 07:30:34;;;;;;;70.67;66.50;;;14.30;99.90;;;;;;6005215;23;20545;-68
2021/09/29 07:33:03;;;;;;;36.53;34.13;;;14.30;99.90;;;;;;5980018;23;20617;-68
2021/09/29 07:35:30;;;;;;;10.93;9.87;;;14.30;99.90;;;;;;6003491;23;20598;-68
2021/09/29 07:37:56;;;;;;;7.43;5.97;;;14.30;99.90;;;;;;6004570;23;21417;-69
2021/09/29 07:40:22;;;;;;;7.20;5.77;;;14.40;99.90;;;;;;6004000;23;20558;-68
2021/09/29 07:42:48;;;;;;;89.17;80.53;;;14.40;99.90;;;;;;6004667;23;20541;-69
2021/09/29 07:45:13;;;;;;;9.03;6.60;;;14.50;99.90;;;;;;6003183;23;21137;-69
2021/09/29 07:47:39;;;;;;;7.60;6.70;;;14.50;99.90;;;;;;6003590;23;20208;-68
2021/09/29 07:50:06;;;;;;;7.10;6.10;;;14.40;99.90;;;;;;6004844;23;20510;-68
2021/09/29 07:52:32;;;;;;;7.40;6.73;;;14.50;99.90;;;;;;6001455;23;20161;-69
2021/09/29 07:54:57;;;;;;;8.93;6.83;;;14.60;99.90;;;;;;5979201;23;20579;-68
2021/09/29 07:57:23;;;;;;;8.27;6.73;;;14.60;99.90;;;;;;6004863;23;20222;-68
2021/09/29 07:59:49;;;;;;;8.00;6.63;;;14.50;99.90;;;;;;6002486;23;20192;-69
2021/09/29 08:02:14;;;;;;;7.50;6.80;;;14.60;99.90;;;;;;6005275;23;20164;-68
2021/09/29 08:04:40;;;;;;;9.53;6.80;;;14.60;99.90;;;;;;6004817;23;20255;-69
2021/09/29 08:07:05;;;;;;;8.40;7.00;;;14.70;99.90;;;;;;6003779;23;20215;-69
2021/09/29 08:09:31;;;;;;;8.70;7.53;;;14.80;99.90;;;;;;6003633;23;20157;-68
2021/09/29 08:11:57;;;;;;;13.00;8.63;;;14.90;99.90;;;;;;6005484;23;20640;-69
2021/09/29 08:14:23;;;;;;;9.63;8.10;;;14.90;99.90;;;;;;5979825;23;20594;-69
2021/09/29 08:16:49;;;;;;;8.67;7.87;;;14.80;99.90;;;;;;5978355;23;20296;-68
2021/09/29 08:19:15;;;;;;;8.90;8.07;;;14.90;99.90;;;;;;6004048;23;20609;-68
2021/09/29 08:21:43;;;;;;;9.67;7.17;;;15.00;99.90;;;;;;6004795;23;20165;-68
2021/09/29 08:24:16;;;;;;;8.80;7.90;;;15.00;99.90;;;;;;6003552;23;20180;-69
2021/09/29 08:42:24;;;;;;;6.90;6.27;;;15.30;99.90;;;;;;6015567;23;20865;-69
2021/09/29 08:44:53;;;;;;;10.63;6.33;;;15.30;99.90;;;;;;5978580;23;20911;-68
2021/09/29 08:50:17;;;;;;;9.73;7.10;;;15.50;99.90;;;;;;6004444;23;20569;-68
2021/09/29 08:56:05;;;;;;;7.57;6.77;;;15.40;99.90;;;;;;5950722;23;20556;-68
2021/09/29 09:17:36;;;;;;;7.63;6.87;;;15.60;99.90;;;;;;6005783;23;20612;-69
2021/09/29 09:20:20;;;;;;;10.33;6.63;;;15.70;99.90;;;;;;6004538;23;20521;-69
2021/09/29 09:22:55;;;;;;;7.10;6.40;;;15.70;99.90;;;;;;6007066;23;20589;-70
2021/09/29 09:25:34;;;;;;;8.53;7.73;;;15.70;99.90;;;;;;6005241;23;21080;-68
2021/09/29 09:28:01;;;;;;;8.53;7.53;;;15.70;99.90;;;;;;6006728;23;20565;-69
2021/09/29 09:30:30;;;;;;;10.40;7.60;;;15.70;99.90;;;;;;6012491;23;20629;-68
2021/09/29 09:32:57;;;;;;;7.53;6.50;;;15.70;99.90;;;;;;6027043;23;20533;-69
2021/09/29 09:35:24;;;;;;;9.13;7.67;;;15.80;99.90;;;;;;6025754;23;20538;-69
2021/09/29 09:37:55;;;;;;;8.67;7.73;;;15.80;99.90;;;;;;6019609;23;20672;-69
2021/09/29 09:40:21;;;;;;;8.23;7.27;;;15.80;99.90;;;;;;6006454;23;20507;-68
2021/09/29 09:42:51;;;;;;;7.77;6.97;;;15.80;99.90;;;;;;5982493;23;21218;-68
2021/09/29 09:45:19;;;;;;;9.17;8.20;;;15.90;99.90;;;;;;6004814;23;20857;-69
2021/09/29 09:47:47;;;;;;;8.27;7.57;;;15.90;99.90;;;;;;6004078;23;20632;-69
2021/09/29 09:50:25;;;;;;;9.43;8.30;;;15.90;99.90;;;;;;6004654;23;20596;-68
2021/09/29 09:52:51;;;;;;;9.57;8.67;;;15.90;99.90;;;;;;5982597;23;20653;-68
2021/09/29 09:55:19;;;;;;;9.60;7.93;;;15.90;99.90;;;;;;5981589;23;20681;-69
2021/09/29 09:57:50;;;;;;;10.10;7.87;;;16.00;99.90;;;;;;6005291;23;20204;-69
2021/09/29 10:00:18;;;;;;;10.30;8.33;;;16.00;99.90;;;;;;6005509;23;20506;-69
2021/09/29 10:02:48;;;;;;;8.90;7.93;;;16.10;99.90;;;;;;5984242;23;20652;-68
2021/09/29 10:05:16;;;;;;;7.80;7.13;;;16.30;99.90;;;;;;6004210;23;20596;-68
2021/09/29 10:07:43;;;;;;;8.80;7.60;;;16.30;99.90;;;;;;6005405;23;20609;-68
2021/09/29 10:27:22;;;;;;;7.10;6.40;;;16.80;99.90;;;;;;5974436;23;20613;-69
2021/09/29 10:30:06;;;;;;;8.00;7.20;;;16.90;99.90;;;;;;6004200;23;20918;-68
2021/09/29 10:32:44;;;;;;;7.67;6.80;;;16.90;99.90;;;;;;5979504;23;20966;-69
2021/09/29 10:40:39;;;;;;;9.47;6.67;;;17.30;99.90;;;;;;6012913;23;20514;-69
2021/09/29 10:43:16;;;;;;;7.87;7.07;;;17.30;99.90;;;;;;6005893;23;20577;-69
2021/09/29 10:45:51;;;;;;;7.77;6.70;;;17.60;99.90;;;;;;6004266;23;20910;-69
2021/09/29 11:09:18;;;;;;;8.53;6.07;;;18.40;99.90;;;;;;6007741;23;21109;-68
2021/09/29 11:31:26;;;;;;;6.40;5.63;;;19.40;99.90;;;;;;5904314;23;20605;-69
2021/09/29 11:37:17;;;;;;;6.07;5.57;;;19.50;99.90;;;;;;5989189;23;20600;-69
2021/09/29 12:10:49;;;;;;;6.00;5.20;;;21.00;99.90;;;;;;5972782;23;21201;-69
2021/09/29 12:13:15;;;;;;;4.33;3.93;;;21.40;99.90;;;;;;6004325;23;20541;-69
2021/09/29 12:15:44;;;;;;;5.20;4.50;;;21.70;99.90;;;;;;6004807;23;20585;-69
2021/09/29 12:18:12;;;;;;;4.90;4.50;;;22.00;99.90;;;;;;6005616;23;20737;-69
2021/09/29 12:20:49;;;;;;;4.33;4.03;;;22.10;99.90;;;;;;5976152;23;20602;-68
2021/09/29 12:23:16;;;;;;;5.60;4.73;;;22.60;99.90;;;;;;5978344;23;20584;-69
2021/09/29 12:25:53;;;;;;;5.70;4.93;;;22.40;99.90;;;;;;5999971;23;20593;-69
2021/09/29 12:36:33;;;;;;;5.13;4.53;;;24.40;99.90;;;;;;6008843;23;20597;-68
2021/09/29 12:39:03;;;;;;;4.60;3.87;;;27.10;99.90;;;;;;5979183;23;20616;-66
2021/09/29 12:41:31;;;;;;;4.67;3.57;;;28.40;99.90;;;;;;5976282;23;20673;-68
2021/09/29 12:44:05;;;;;;;5.67;4.03;;;29.00;99.90;;;;;;6003375;23;20680;-68
2021/09/29 12:46:35;;;;;;;4.83;3.53;;;29.70;99.90;;;;;;6003474;23;20590;-68
2021/09/29 12:49:08;;;;;;;3.53;3.23;;;30.50;99.90;;;;;;6003786;23;20568;-66
2021/09/29 12:51:40;;;;;;;4.30;3.70;;;29.40;99.90;;;;;;6005203;23;21300;-68
2021/09/29 12:54:08;;;;;;;3.73;3.43;;;28.10;99.90;;;;;;6004793;23;20506;-70
2021/09/29 12:56:33;;;;;;;3.50;3.03;;;27.10;99.90;;;;;;6003403;23;20585;-69
2021/09/29 12:59:01;;;;;;;4.10;3.80;;;26.40;99.90;;;;;;5979884;23;20608;-67
2021/09/29 13:01:27;;;;;;;4.77;4.10;;;25.80;99.90;;;;;;6006419;23;20254;-67
2021/09/29 13:03:52;;;;;;;6.23;4.10;;;25.10;99.90;;;;;;6008108;23;21105;-68
2021/09/29 13:06:17;;;;;;;6.20;5.10;;;24.70;99.90;;;;;;6009701;23;20300;-67
2021/09/29 13:08:43;;;;;;;5.10;4.70;;;23.90;99.90;;;;;;5983581;23;20181;-67
2021/09/29 13:11:09;;;;;;;6.17;5.30;;;23.40;99.90;;;;;;6009070;23;20566;-67
2021/09/29 13:13:35;;;;;;;4.97;4.50;;;22.90;99.90;;;;;;6007314;23;20510;-67
2021/09/29 13:16:02;;;;;;;5.30;4.80;;;22.80;99.90;;;;;;6006799;23;20561;-68
2021/09/29 13:18:44;;;;;;;5.40;4.90;;;22.50;99.90;;;;;;6006717;23;20577;-68
2021/09/29 13:21:18;;;;;;;7.20;5.23;;;22.10;99.90;;;;;;6008859;23;20502;-68
2021/09/29 13:37:11;;;;;;;5.47;4.97;;;20.70;99.90;;;;;;6007949;23;20657;-68
2021/09/29 13:39:36;;;;;;;7.03;6.30;;;20.60;99.90;;;;;;6007099;23;20560;-68
2021/09/29 13:42:03;;;;;;;11.27;7.50;;;20.40;99.90;;;;;;6006858;23;20541;-68
2021/09/29 13:44:29;;;;;;;7.10;5.73;;;20.20;99.90;;;;;;5980275;23;20185;-68
2021/09/29 13:46:54;;;;;;;5.47;4.90;;;19.90;99.90;;;;;;5980137;23;20637;-68
2021/09/29 13:49:22;;;;;;;7.60;5.20;;;19.40;99.90;;;;;;6007205;23;20187;-68
2021/09/29 13:51:50;;;;;;;7.27;4.73;;;19.40;99.90;;;;;;6005332;23;20153;-70
2021/09/29 13:54:23;;;;;;;4.60;3.47;;;19.10;99.90;;;;;;6004800;23;20563;-70
2021/09/29 13:59:33;;;;;;;4.13;3.73;;;18.90;99.90;;;;;;6016820;23;20528;-72
2021/09/29 14:32:15;;;;;;;4.70;2.83;;;18.30;99.90;;;;;;6029889;23;20546;-69
2021/09/29 14:34:17;;;;;;;3.63;2.63;;;18.20;99.90;;;;;;6016516;23;20568;-68
2021/09/29 14:36:44;;;;;;;3.60;2.60;;;18.10;99.90;;;;;;6020651;23;21212;-67
2021/09/29 14:39:09;;;;;;;5.57;2.20;;;18.20;99.90;;;;;;6012476;23;21116;-68
2021/09/29 14:41:35;;;;;;;3.67;2.70;;;18.20;99.90;;;;;;5984357;23;20570;-68
2021/09/29 14:44:00;;;;;;;3.27;2.50;;;18.20;99.90;;;;;;6005161;23;20502;-68
2021/09/29 14:46:26;;;;;;;3.23;2.70;;;18.20;99.90;;;;;;6004139;23;20828;-68
2021/09/29 14:48:52;;;;;;;2.83;2.53;;;18.20;99.90;;;;;;6005475;23;20172;-70
2021/09/29 14:51:17;;;;;;;3.20;2.53;;;18.10;99.90;;;;;;6006587;23;20164;-68
2021/09/29 14:53:48;;;;;;;3.77;2.80;;;18.10;99.90;;;;;;5983634;23;20200;-72
2021/09/29 14:56:16;;;;;;;3.73;2.70;;;18.10;99.90;;;;;;6020951;23;21154;-68
2021/09/29 14:58:42;;;;;;;7.10;2.97;;;18.10;99.90;;;;;;6028757;23;20588;-68
2021/09/29 15:01:07;;;;;;;5.20;2.90;;;18.10;99.90;;;;;;6011449;23;20541;-68
2021/09/29 15:03:33;;;;;;;3.10;2.83;;;18.10;99.90;;;;;;5982780;23;20192;-68
2021/09/29 15:05:59;;;;;;;3.83;3.03;;;18.00;99.90;;;;;;5981358;23;20201;-68
2021/09/29 15:08:25;;;;;;;5.50;3.40;;;18.00;99.90;;;;;;6007721;23;20569;-68
2021/09/29 15:10:51;;;;;;;3.43;3.10;;;17.90;99.90;;;;;;6008837;23;20196;-67
2021/09/29 15:13:18;;;;;;;5.63;3.70;;;17.80;99.90;;;;;;6008330;23;20200;-69
2021/09/29 15:15:54;;;;;;;3.87;2.87;;;17.80;99.90;;;;;;5982385;23;20641;-67
2021/09/29 15:18:28;;;;;;;1.93;1.80;;;17.70;99.90;;;;;;6007757;23;20569;-70
2021/09/29 15:21:13;;;;;;;2.47;2.13;;;17.70;99.90;;;;;;5983000;23;20617;-70
2021/09/29 15:31:34;;;;;;;2.50;2.30;;;17.40;99.90;;;;;;6008578;23;20541;-68
2021/09/29 15:47:48;;;;;;;1.10;1.00;;;16.30;99.90;;;;;;6006244;23;20676;-68
2021/09/29 15:53:31;;;;;;;1.90;1.00;;;16.10;99.90;;;;;;6007483;23;20530;-68
2021/09/29 15:56:07;;;;;;;1.47;0.97;;;15.90;99.90;;;;;;6006856;23;20588;-69
2021/09/29 16:01:31;;;;;;;1.03;0.97;;;15.80;99.90;;;;;;6017749;23;21032;-68
2021/09/29 16:31:06;;;;;;;3.57;2.07;;;15.20;99.90;;;;;;6006301;23;20509;-68
2021/09/29 16:36:22;;;;;;;2.57;2.37;;;15.00;99.90;;;;;;5999354;23;20596;-68
2021/09/29 16:38:48;;;;;;;2.80;2.50;;;14.90;99.90;;;;;;6005850;23;20581;-68
2021/09/29 16:41:17;;;;;;;2.60;2.40;;;14.80;99.90;;;;;;6007729;23;20566;-68
2021/09/29 16:43:43;;;;;;;2.57;2.37;;;14.80;99.90;;;;;;6007098;23;21216;-68
2021/09/29 16:46:10;;;;;;;2.80;2.63;;;14.80;99.90;;;;;;6003537;23;20938;-68
2021/09/29 16:48:36;;;;;;;3.63;3.33;;;14.80;99.90;;;;;;6007272;23;20569;-68
2021/09/29 16:53:37;;;;;;;3.30;3.10;;;14.70;99.90;;;;;;6017371;23;20502;-68
2021/09/29 16:56:03;;;;;;;3.27;2.97;;;14.60;99.90;;;;;;6004556;23;20604;-68
2021/09/29 16:58:45;;;;;;;3.37;3.17;;;14.50;99.90;;;;;;6007544;23;20601;-69